Time;durP1;ratioP1;P1;durP2;ratioP2;P2;SDS_P1;SDS_P2;PMS_P1;PMS_P2;Temp;Humidity;BMP_temperature;BMP_pressure;BME280_temperature;BME280_humidity;BME280_pressure;Samples;Min_cycle;Max_cycle;Signal;HPM_P1;HPM_P2
2021/07/29 04:17:07;;;;;;;7.07;4.85;;;;;;;14.24;99.36;98686.25;5124197;23;20510;-74
2021/07/29 04:19:33;;;;;;;7.03;5.05;;;;;;;14.21;99.34;98686.34;4898552;29;20036;-74
2021/07/29 04:22:00;;;;;;;5.55;5.03;;;;;;;14.26;98.96;98694.00;4899901;29;20029;-74
2021/07/29 04:24:29;;;;;;;7.40;5.25;;;;;;;14.32;98.66;98694.66;4898680;29;20056;-74
2021/07/29 04:26:59;;;;;;;7.93;4.93;;;;;;;14.45;97.66;98695.06;4899808;29;20059;-74
2021/07/29 04:29:25;;;;;;;6.63;4.45;;;;;;;14.45;97.54;98699.44;4952776;23;20608;-71
2021/07/29 04:31:51;;;;;;;5.43;4.82;;;;;;;14.45;97.25;98704.66;4937599;29;20086;-71
2021/07/29 04:34:16;;;;;;;6.05;4.45;;;;;;;14.59;96.93;98697.22;4937245;29;20032;-71
2021/07/29 04:36:42;;;;;;;8.57;5.10;;;;;;;14.63;96.36;98697.06;4937582;29;20032;-71
2021/07/29 04:39:08;;;;;;;6.38;4.60;;;;;;;14.63;96.13;98699.66;4937374;29;20427;-72
2021/07/29 04:41:38;;;;;;;7.68;4.55;;;;;;;15.00;95.74;98703.56;4937317;29;20028;-72
2021/07/29 04:44:03;;;;;;;6.88;4.60;;;;;;;15.27;93.22;98701.66;4937371;29;20477;-71
2021/07/29 04:46:28;;;;;;;5.40;4.80;;;;;;;15.01;94.28;98697.44;4937349;29;20034;-70
2021/07/29 04:48:54;;;;;;;7.05;4.65;;;;;;;14.98;94.52;98694.91;4937122;29;20102;-70
2021/07/29 04:51:19;;;;;;;7.10;4.72;;;;;;;15.14;93.88;98701.28;4937114;29;20436;-70
2021/07/29 04:53:44;;;;;;;11.20;4.78;;;;;;;15.22;93.51;98700.97;4937134;29;20094;-71
2021/07/29 04:56:10;;;;;;;8.05;4.38;;;;;;;15.21;93.58;98695.81;4936962;29;20034;-70
2021/07/29 04:58:35;;;;;;;8.82;4.93;;;;;;;15.09;94.06;98697.16;4936992;29;20034;-70
2021/07/29 05:01:04;;;;;;;6.47;5.18;;;;;;;15.15;94.19;98697.75;4936961;29;20063;-70
2021/07/29 05:03:29;;;;;;;8.00;4.90;;;;;;;15.20;94.74;98699.34;4937000;29;20019;-70
2021/07/29 05:05:55;;;;;;;6.28;4.65;;;;;;;15.36;93.27;98700.44;4920810;29;20103;-70
2021/07/29 05:08:20;;;;;;;16.60;5.05;;;;;;;15.34;93.76;98697.06;4927912;29;20048;-70
2021/07/29 05:10:45;;;;;;;5.35;4.50;;;;;;;15.40;93.01;98681.16;4932888;29;20035;-70
2021/07/29 05:13:10;;;;;;;6.45;4.50;;;;;;;15.43;92.99;98688.88;4936349;29;20473;-70
2021/07/29 05:15:37;;;;;;;5.80;4.57;;;;;;;15.51;92.58;98678.97;4936589;29;20034;-70
2021/07/29 05:18:02;;;;;;;8.50;4.47;;;;;;;15.64;92.30;98680.22;4936276;29;20030;-70
2021/07/29 05:20:28;;;;;;;10.85;5.30;;;;;;;15.71;91.48;98679.97;4935956;29;20118;-70
2021/07/29 05:22:53;;;;;;;8.52;4.40;;;;;;;16.03;89.71;98678.66;4936285;29;20548;-72
2021/07/29 05:25:24;;;;;;;6.20;4.55;;;;;;;15.68;92.12;98681.78;4930852;29;20579;-72
2021/07/29 05:27:50;;;;;;;11.63;5.03;;;;;;;16.08;89.70;98690.59;4936371;29;20034;-72
2021/07/29 05:30:17;;;;;;;10.52;5.15;;;;;;;15.78;90.92;98681.44;4934803;29;20035;-72
2021/07/29 05:32:42;;;;;;;6.60;5.22;;;;;;;15.63;92.01;98685.47;4936104;29;20481;-72
2021/07/29 05:35:08;;;;;;;9.18;5.18;;;;;;;15.72;91.79;98686.91;4936042;29;20032;-73
2021/07/29 05:37:34;;;;;;;7.97;5.38;;;;;;;15.61;91.79;98690.75;4936326;29;20107;-72
2021/07/29 05:39:59;;;;;;;6.15;4.72;;;;;;;15.65;92.21;98691.50;4936062;29;20036;-73
2021/07/29 05:42:24;;;;;;;10.25;5.07;;;;;;;15.79;92.04;98688.34;4935240;29;20470;-73
2021/07/29 05:44:50;;;;;;;7.45;5.00;;;;;;;15.89;91.12;98700.13;4936000;29;20039;-72
2021/07/29 05:47:15;;;;;;;9.50;5.55;;;;;;;15.76;91.42;98689.34;4936061;29;20026;-71
2021/07/29 05:49:41;;;;;;;5.60;4.97;;;;;;;15.89;91.13;98694.91;4934240;29;20031;-70
2021/07/29 05:52:06;;;;;;;6.20;4.93;;;;;;;16.34;89.56;98691.25;4931471;29;20477;-71
2021/07/29 05:54:31;;;;;;;9.50;4.75;;;;;;;16.46;89.96;98690.75;4929458;29;20027;-70
2021/07/29 05:56:57;;;;;;;8.75;4.43;;;;;;;16.94;87.46;98686.91;4935794;29;20123;-70
2021/07/29 05:59:22;;;;;;;11.57;4.90;;;;;;;17.13;86.25;98687.78;4935832;29;20123;-71
2021/07/29 06:01:48;;;;;;;7.18;4.28;;;;;;;17.36;84.57;98678.84;4931453;29;20031;-70
2021/07/29 06:04:14;;;;;;;8.30;4.15;;;;;;;17.75;83.46;98682.31;4933724;29;20028;-70
2021/07/29 06:06:39;;;;;;;8.80;3.90;;;;;;;17.97;81.37;98691.63;4935372;29;20023;-70
2021/07/29 06:09:04;;;;;;;6.78;4.47;;;;;;;18.04;80.54;98686.94;4930769;29;20020;-70
2021/07/29 06:11:31;;;;;;;7.55;4.35;;;;;;;18.32;80.17;98690.78;4935298;29;20023;-70
2021/07/29 06:13:56;;;;;;;6.22;4.13;;;;;;;18.56;79.49;98684.28;4935466;29;20027;-71
2021/07/29 06:16:21;;;;;;;9.85;3.90;;;;;;;18.62;79.80;98686.59;4934597;29;20082;-72
2021/07/29 06:21:34;;;;;;;8.57;4.10;;;;;;;19.17;75.72;98686.31;4931690;29;20028;-72
2021/07/29 06:24:00;;;;;;;8.00;4.80;;;;;;;19.41;75.81;98678.00;4935302;29;20124;-72
2021/07/29 06:26:25;;;;;;;4.95;3.70;;;;;;;19.64;74.74;98685.50;4935345;29;20106;-72
2021/07/29 06:28:51;;;;;;;11.70;5.60;;;;;;;19.63;75.40;98683.81;4934006;29;20110;-69
2021/07/29 06:31:16;;;;;;;27.88;10.85;;;;;;;19.53;74.84;98677.31;4934894;29;20110;-69
2021/07/29 06:33:42;;;;;;;30.33;11.63;;;;;;;19.78;73.72;98687.34;4934948;29;20039;-69
2021/07/29 06:36:07;;;;;;;14.02;5.25;;;;;;;20.20;71.73;98693.69;4935048;29;20027;-69
2021/07/29 06:38:32;;;;;;;10.95;5.25;;;;;;;20.30;72.23;98689.56;4934361;29;20028;-69
2021/07/29 06:40:58;;;;;;;11.63;4.32;;;;;;;20.65;69.87;98690.13;4934540;29;20047;-69
2021/07/29 06:43:24;;;;;;;6.50;3.38;;;;;;;20.45;68.55;98690.44;4934701;29;20020;-69
2021/07/29 06:45:49;;;;;;;7.28;2.78;;;;;;;21.08;65.65;98694.53;4934979;29;20400;-69
2021/07/29 06:48:16;;;;;;;3.55;2.20;;;;;;;20.76;65.49;98692.97;4934792;29;20032;-69
2021/07/29 06:50:42;;;;;;;7.10;2.38;;;;;;;21.19;65.52;98689.47;4931851;29;20449;-69
2021/07/29 06:53:07;;;;;;;4.07;2.90;;;;;;;21.46;64.68;98687.72;4934292;29;20032;-69
2021/07/29 06:55:32;;;;;;;4.28;2.70;;;;;;;21.85;62.33;98683.47;4934729;29;20031;-69
2021/07/29 06:57:58;;;;;;;4.88;2.50;;;;;;;22.83;59.24;98693.56;4934749;29;20023;-69
2021/07/29 07:00:23;;;;;;;3.88;2.33;;;;;;;24.18;54.75;98683.88;4934452;29;20181;-69
2021/07/29 07:02:48;;;;;;;2.22;1.80;;;;;;;24.75;50.37;98692.78;4925314;29;20471;-69
2021/07/29 07:05:14;;;;;;;4.10;2.03;;;;;;;25.53;48.55;98692.78;4923692;29;20576;-72
2021/07/29 07:07:39;;;;;;;5.88;1.88;;;;;;;26.35;46.94;98687.81;4922657;29;20035;-72
2021/07/29 07:10:05;;;;;;;3.38;2.05;;;;;;;26.37;45.36;98685.84;4923509;29;20088;-72
2021/07/29 07:12:30;;;;;;;4.20;2.15;;;;;;;25.96;47.16;98691.09;4925214;29;20032;-71
2021/07/29 07:14:56;;;;;;;5.47;1.92;;;;;;;26.70;46.18;98691.13;4925207;29;20433;-70
2021/07/29 07:17:21;;;;;;;5.47;2.22;;;;;;;26.63;45.26;98698.75;4920694;29;20035;-71
2021/07/29 07:19:47;;;;;;;5.47;2.38;;;;;;;25.95;46.68;98697.41;4923112;29;20527;-71
2021/07/29 07:22:12;;;;;;;4.88;2.10;;;;;;;25.67;47.04;98702.25;4919906;29;20031;-71
2021/07/29 07:24:38;;;;;;;4.65;1.92;;;;;;;25.94;47.08;98699.22;4925692;29;20036;-71
2021/07/29 07:27:05;;;;;;;5.45;2.40;;;;;;;26.82;45.09;98700.69;4920296;29;20469;-71
2021/07/29 07:29:34;;;;;;;3.63;1.90;;;;;;;27.51;43.10;98692.88;4923198;29;20035;-71
2021/07/29 07:31:59;;;;;;;5.47;2.30;;;;;;;27.86;42.17;98692.38;4925608;29;20043;-70
2021/07/29 07:34:25;;;;;;;2.92;2.10;;;;;;;27.03;43.09;98708.59;4924696;29;20420;-71
2021/07/29 07:36:50;;;;;;;5.32;2.20;;;;;;;26.95;43.10;98701.31;4918386;29;20595;-71
2021/07/29 07:39:15;;;;;;;5.50;2.40;;;;;;;26.82;44.01;98698.88;4914876;29;20098;-71
2021/07/29 07:41:41;;;;;;;3.03;2.40;;;;;;;28.12;40.93;98686.50;4912155;29;20075;-70
2021/07/29 07:44:06;;;;;;;4.57;2.28;;;;;;;28.68;39.66;98688.41;4914834;29;20024;-71
2021/07/29 07:46:32;;;;;;;4.50;2.20;;;;;;;28.27;40.30;98690.41;4913459;29;20034;-71
2021/07/29 07:48:57;;;;;;;4.68;2.17;;;;;;;27.23;42.40;98688.31;4904317;29;20042;-71
2021/07/29 07:51:22;;;;;;;4.60;2.60;;;;;;;24.52;48.58;98681.34;4907392;29;20048;-71
2021/07/29 07:53:48;;;;;;;3.90;2.88;;;;;;;24.88;47.55;98689.06;4908072;29;20020;-71
2021/07/29 07:56:13;;;;;;;5.03;2.50;;;;;;;24.94;46.67;98687.72;4906969;29;20681;-71
2021/07/29 07:58:39;;;;;;;3.60;3.00;;;;;;;26.46;42.76;98678.09;4910970;29;21426;-71
2021/07/29 08:01:04;;;;;;;3.15;2.83;;;;;;;27.28;39.79;98676.28;4908400;29;20146;-70
2021/07/29 08:03:29;;;;;;;3.78;2.75;;;;;;;25.52;43.91;98680.47;4911167;29;20039;-70
2021/07/29 08:05:55;;;;;;;6.90;2.80;;;;;;;25.01;44.55;98677.50;4910318;29;20065;-70
2021/07/29 08:08:20;;;;;;;3.10;2.00;;;;;;;24.90;44.12;98685.44;4915301;29;20107;-70
2021/07/29 08:10:50;;;;;;;4.32;2.70;;;;;;;25.29;43.56;98682.34;4917766;29;20097;-71
2021/07/29 08:13:15;;;;;;;4.50;2.50;;;;;;;24.71;44.45;98678.06;4914563;29;20032;-71
2021/07/29 08:15:40;;;;;;;2.80;2.30;;;;;;;26.07;41.92;98669.84;4912489;29;21343;-71
2021/07/29 08:18:06;;;;;;;6.60;2.72;;;;;;;27.57;38.73;98676.34;4922886;29;20039;-71
2021/07/29 08:20:31;;;;;;;2.97;2.20;;;;;;;27.52;38.54;98667.94;4925949;29;20142;-71
2021/07/29 08:22:57;;;;;;;3.45;2.60;;;;;;;27.46;39.09;98659.63;4927063;29;20031;-71
2021/07/29 08:25:23;;;;;;;4.47;2.75;;;;;;;28.28;38.50;98665.44;4929092;29;20067;-71
2021/07/29 08:27:50;;;;;;;2.92;2.15;;;;;;;28.65;36.99;98667.34;4924824;29;20031;-71
2021/07/29 08:30:16;;;;;;;2.58;2.38;;;;;;;28.78;36.19;98678.56;4927349;29;20035;-71
2021/07/29 08:32:43;;;;;;;3.75;2.55;;;;;;;27.37;37.89;98675.47;4924888;29;20034;-70
2021/07/29 08:35:09;;;;;;;4.55;2.60;;;;;;;26.72;39.15;98674.03;4925724;29;20036;-70
2021/07/29 08:37:34;;;;;;;3.05;2.78;;;;;;;28.13;37.04;98678.34;4917612;29;20035;-69
2021/07/29 08:40:00;;;;;;;4.03;2.72;;;;;;;28.42;36.76;98678.34;4915434;29;20023;-69
2021/07/29 08:42:26;;;;;;;6.13;2.40;;;;;;;29.58;34.51;98676.25;4911133;29;20039;-69
2021/07/29 08:44:52;;;;;;;2.90;2.40;;;;;;;29.86;33.85;98672.53;4903841;29;20023;-69
2021/07/29 08:47:23;;;;;;;4.95;2.28;;;;;;;29.10;35.67;98677.31;4905152;29;20452;-69
2021/07/29 08:49:54;;;;;;;3.50;2.08;;;;;;;29.47;35.08;98673.75;4905693;29;20034;-69
2021/07/29 08:52:19;;;;;;;2.42;2.22;;;;;;;28.13;36.17;98672.19;4900004;29;20485;-70
2021/07/29 08:54:47;;;;;;;2.70;2.47;;;;;;;29.34;35.51;98674.09;4894242;29;20075;-70
2021/07/29 08:57:13;;;;;;;7.07;2.55;;;;;;;29.69;34.34;98666.19;4893710;29;20115;-69
2021/07/29 08:59:38;;;;;;;4.13;2.47;;;;;;;30.32;32.60;98659.94;4896677;29;20032;-70
2021/07/29 09:02:03;;;;;;;4.07;2.45;;;;;;;29.38;33.58;98671.00;4893481;29;20110;-70
2021/07/29 09:04:29;;;;;;;2.67;2.22;;;;;;;30.59;32.24;98660.75;4893681;29;20737;-70
2021/07/29 09:06:57;;;;;;;5.78;2.30;;;;;;;30.31;32.28;98662.75;4895454;29;20456;-70
2021/07/29 09:09:39;;;;;;;4.78;2.85;;;;;;;28.66;34.53;98679.69;4907951;29;20032;-70
2021/07/29 09:12:13;;;;;;;7.35;2.60;;;;;;;28.32;35.33;98677.50;4919597;29;20600;-69
2021/07/29 09:14:38;;;;;;;3.72;2.55;;;;;;;28.21;35.11;98669.66;4918844;29;20123;-70
2021/07/29 09:17:05;;;;;;;2.40;2.20;;;;;;;27.58;36.61;98672.69;4917895;29;20036;-69
2021/07/29 09:19:34;;;;;;;3.58;2.50;;;;;;;27.94;35.72;98667.69;4918618;29;20111;-69
2021/07/29 09:22:27;;;;;;;3.75;2.60;;;;;;;28.92;35.07;98675.41;4923697;29;20027;-69
2021/07/29 09:25:12;;;;;;;12.35;3.00;;;;;;;29.58;33.39;98670.91;4926215;29;20027;-71
2021/07/29 09:27:37;;;;;;;4.65;2.47;;;;;;;30.34;32.46;98662.44;4926651;29;20035;-71
2021/07/29 09:30:13;;;;;;;3.78;2.65;;;;;;;29.83;32.68;98648.78;4924819;29;20038;-70
2021/07/29 09:33:06;;;;;;;8.52;2.60;;;;;;;28.42;38.18;98670.34;4925228;29;20036;-68
2021/07/29 09:35:31;;;;;;;6.05;2.45;;;;;;;26.12;43.96;98675.59;4923626;29;20961;-69
2021/07/29 09:37:58;;;;;;;3.13;2.58;;;;;;;27.24;41.55;98674.84;4922109;29;20028;-69
2021/07/29 09:40:23;;;;;;;3.65;2.72;;;;;;;29.10;37.96;98667.47;4925026;29;20074;-69
2021/07/29 09:43:10;;;;;;;3.65;2.03;;;;;;;26.17;43.92;98668.09;4924394;29;20465;-68
2021/07/29 09:45:35;;;;;;;8.32;2.45;;;;;;;26.90;42.16;98667.13;4923700;29;20038;-69
2021/07/29 09:48:02;;;;;;;4.80;2.63;;;;;;;28.99;37.87;98658.84;4921410;29;20039;-69
2021/07/29 09:50:28;;;;;;;6.05;2.22;;;;;;;30.19;37.26;98659.50;4922906;29;20040;-69
2021/07/29 09:52:54;;;;;;;4.93;2.15;;;;;;;28.89;37.59;98665.03;4925211;29;20032;-69
2021/07/29 09:55:21;;;;;;;4.95;2.38;;;;;;;28.09;38.86;98654.78;4925300;29;20646;-68
2021/07/29 09:57:46;;;;;;;6.97;2.65;;;;;;;28.57;36.82;98660.06;4924694;29;20028;-68
2021/07/29 10:00:12;;;;;;;6.90;3.33;;;;;;;27.59;37.58;98653.06;4922508;29;20037;-71
2021/07/29 10:02:38;;;;;;;3.90;2.50;;;;;;;28.98;34.08;98651.84;4924186;29;20039;-71
2021/07/29 10:05:05;;;;;;;8.70;2.70;;;;;;;28.07;35.04;98654.09;4924508;29;20032;-70
2021/07/29 10:07:35;;;;;;;4.53;2.72;;;;;;;26.14;37.86;98663.03;4922357;29;20035;-70
2021/07/29 10:10:03;;;;;;;3.15;2.70;;;;;;;26.65;37.61;98656.97;4923002;29;20031;-71
2021/07/29 10:12:30;;;;;;;4.95;2.38;;;;;;;26.69;38.08;98649.53;4921971;29;20054;-68
2021/07/29 10:14:57;;;;;;;4.35;2.80;;;;;;;26.71;37.50;98645.78;4927005;29;20038;-71
2021/07/29 10:17:52;;;;;;;4.28;2.97;;;;;;;27.92;36.39;98637.72;4925679;29;20123;-71
2021/07/29 10:20:22;;;;;;;3.35;2.78;;;;;;;29.24;34.45;98636.78;4924403;29;20497;-71
2021/07/29 10:22:49;;;;;;;3.72;2.80;;;;;;;28.30;33.71;98630.66;4925335;29;20126;-71
2021/07/29 10:25:15;;;;;;;6.63;2.65;;;;;;;27.57;36.13;98640.91;4923021;29;20095;-71
2021/07/29 10:28:21;;;;;;;3.67;2.75;;;;;;;26.83;38.61;98639.38;4922172;29;20062;-71
2021/07/29 10:30:53;;;;;;;3.50;2.58;;;;;;;26.19;39.62;98639.56;4922203;29;20036;-71
2021/07/29 10:33:20;;;;;;;3.10;2.33;;;;;;;25.33;41.56;98656.41;4925239;29;20046;-71
2021/07/29 10:35:45;;;;;;;3.67;2.67;;;;;;;26.43;39.10;98641.16;4926510;29;20032;-71
2021/07/29 10:38:11;;;;;;;5.63;3.00;;;;;;;25.51;40.59;98640.81;4924145;29;20040;-68
2021/07/29 10:40:38;;;;;;;5.28;2.70;;;;;;;25.07;41.70;98647.88;4923750;29;20039;-68
2021/07/29 10:43:25;;;;;;;3.78;2.65;;;;;;;25.99;41.03;98637.75;4921057;29;20086;-71
2021/07/29 10:45:55;;;;;;;4.15;2.83;;;;;;;27.34;37.14;98633.16;4923403;29;20027;-71
2021/07/29 10:49:13;;;;;;;4.63;2.72;;;;;;;26.83;37.40;98634.06;4924543;29;20028;-69
2021/07/29 10:51:58;;;;;;;3.75;3.03;;;;;;;28.57;34.56;98643.22;4892163;29;20096;-68
2021/07/29 10:54:24;;;;;;;3.50;2.80;;;;;;;28.93;33.86;98628.22;4924439;29;20035;-69
2021/07/29 10:56:50;;;;;;;4.57;2.70;;;;;;;28.95;34.52;98631.59;4919515;29;20502;-68
2021/07/29 10:59:18;;;;;;;3.65;2.70;;;;;;;30.66;32.10;98624.38;4922788;29;20103;-69
2021/07/29 11:01:46;;;;;;;3.38;2.50;;;;;;;29.78;31.99;98618.19;4921721;29;20028;-69
2021/07/29 11:04:11;;;;;;;4.57;2.60;;;;;;;30.03;33.08;98620.09;4924426;29;20066;-69
2021/07/29 11:06:40;;;;;;;3.90;2.83;;;;;;;30.08;32.64;98619.63;4920262;29;20027;-69
2021/07/29 11:09:19;;;;;;;4.63;3.03;;;;;;;31.62;29.08;98613.34;4925059;29;20114;-70
2021/07/29 11:11:50;;;;;;;3.55;2.90;;;;;;;32.67;27.93;98611.66;4923936;29;20046;-69
2021/07/29 11:14:25;;;;;;;9.13;2.65;;;;;;;33.58;27.08;98604.91;4925785;29;20035;-70
2021/07/29 11:16:51;;;;;;;3.25;2.95;;;;;;;33.69;26.02;98612.53;4921963;29;20525;-70
2021/07/29 11:19:16;;;;;;;5.43;2.55;;;;;;;31.40;29.38;98602.28;4920576;29;20042;-70
2021/07/29 11:21:42;;;;;;;3.05;2.72;;;;;;;28.96;32.88;98617.28;4919965;29;20031;-69
2021/07/29 11:24:24;;;;;;;3.40;2.80;;;;;;;28.46;33.82;98614.94;4923340;29;20027;-69
2021/07/29 11:26:50;;;;;;;4.18;2.85;;;;;;;28.28;33.27;98614.78;4921325;29;20035;-70
2021/07/29 11:29:15;;;;;;;5.57;2.92;;;;;;;28.18;35.04;98605.97;4926697;29;20016;-71
2021/07/29 11:31:41;;;;;;;3.35;3.05;;;;;;;31.08;31.45;98602.16;4927965;29;20055;-71
2021/07/29 11:34:07;;;;;;;3.47;3.10;;;;;;;31.45;29.49;98593.75;4929539;29;20038;-71
2021/07/29 11:36:33;;;;;;;4.20;2.83;;;;;;;30.71;31.03;98603.38;4923619;29;20039;-70
2021/07/29 11:39:08;;;;;;;5.00;3.08;;;;;;;30.01;31.17;98607.84;4940757;28;20549;-69
2021/07/29 11:41:53;;;;;;;4.35;2.85;;;;;;;28.87;34.27;98610.16;4929165;29;20470;-71
2021/07/29 11:44:20;;;;;;;5.22;3.10;;;;;;;28.39;33.70;98608.50;4928788;29;20027;-71
2021/07/29 11:46:56;;;;;;;6.03;3.33;;;;;;;29.29;32.96;98604.31;4926722;29;20034;-71
2021/07/29 11:49:22;;;;;;;4.63;3.65;;;;;;;28.86;32.70;98595.94;4928996;29;20032;-71
2021/07/29 11:52:03;;;;;;;7.10;3.55;;;;;;;27.49;34.61;98592.81;4926839;29;20039;-72
2021/07/29 11:54:30;;;;;;;6.70;3.15;;;;;;;26.65;36.30;98590.50;4927727;29;20032;-71
2021/07/29 11:56:59;;;;;;;7.05;3.42;;;;;;;25.66;38.14;98594.44;4924609;29;20505;-71
2021/07/29 11:59:26;;;;;;;6.05;4.00;;;;;;;26.12;38.83;98591.44;4929557;29;20114;-68
2021/07/29 12:01:54;;;;;;;4.85;2.90;;;;;;;27.84;34.22;98579.81;4927806;29;20493;-67
2021/07/29 12:04:20;;;;;;;7.72;3.30;;;;;;;27.25;35.59;98578.09;4928610;29;20028;-68
2021/07/29 12:06:45;;;;;;;5.82;3.40;;;;;;;26.61;38.04;98581.09;4928191;29;20035;-69
2021/07/29 12:09:13;;;;;;;5.70;3.33;;;;;;;26.28;37.45;98585.66;4929107;29;20031;-68
2021/07/29 12:11:38;;;;;;;3.75;2.85;;;;;;;26.48;39.03;98575.16;4928857;29;20050;-68
2021/07/29 12:14:04;;;;;;;3.85;2.75;;;;;;;26.48;38.90;98575.16;4928716;29;20031;-68
2021/07/29 12:17:01;;;;;;;5.25;3.17;;;;;;;26.06;38.73;98570.72;4923768;29;20024;-70
2021/07/29 12:19:27;;;;;;;7.70;3.28;;;;;;;26.35;38.69;98565.59;4896563;29;20039;-70
2021/07/29 12:21:53;;;;;;;4.15;3.08;;;;;;;26.24;38.88;98573.63;4922838;29;20028;-71
2021/07/29 12:24:18;;;;;;;8.40;3.10;;;;;;;25.84;41.39;98571.69;4926653;29;20024;-74
2021/07/29 12:27:19;;;;;;;6.07;3.15;;;;;;;24.41;43.29;98585.94;4927748;29;20401;-73
2021/07/29 12:29:46;;;;;;;5.22;3.22;;;;;;;25.73;41.65;98568.22;4870302;29;20522;-73
2021/07/29 12:32:21;;;;;;;4.30;3.45;;;;;;;25.56;41.67;98572.28;4916017;29;20084;-69
2021/07/29 12:34:47;;;;;;;4.18;3.08;;;;;;;25.02;42.54;98563.38;4926285;29;20032;-71
2021/07/29 12:37:13;;;;;;;8.20;3.08;;;;;;;24.84;43.78;98559.53;4925381;29;20051;-68
2021/07/29 12:39:42;;;;;;;4.43;3.00;;;;;;;24.26;44.59;98575.53;4922344;29;21065;-69
2021/07/29 12:42:25;;;;;;;4.45;3.17;;;;;;;24.30;45.45;98577.00;4925520;29;20036;-68
2021/07/29 12:45:03;;;;;;;4.53;3.17;;;;;;;25.04;43.48;98565.88;4926113;29;20030;-69
2021/07/29 12:47:29;;;;;;;7.07;3.47;;;;;;;25.79;41.65;98557.13;4924422;29;20028;-69
2021/07/29 12:49:54;;;;;;;11.75;3.80;;;;;;;26.10;41.09;98560.66;4924949;29;20062;-72
2021/07/29 12:52:22;;;;;;;6.97;3.42;;;;;;;26.90;39.31;98550.13;4925120;29;20036;-72
2021/07/29 12:55:16;;;;;;;4.57;3.20;;;;;;;26.30;39.91;98551.84;4928331;29;20036;-72
2021/07/29 12:57:55;;;;;;;18.30;12.82;;;;;;;26.14;40.44;98554.13;4918797;29;20039;-73
2021/07/29 13:00:22;;;;;;;3.30;2.70;;;;;;;25.50;42.24;98556.88;4926656;29;20028;-71
2021/07/29 13:02:47;;;;;;;7.88;3.30;;;;;;;25.19;43.65;98556.75;4924517;29;21395;-71
2021/07/29 13:05:12;;;;;;;4.68;3.28;;;;;;;25.64;43.71;98548.59;4926787;29;20035;-73
2021/07/29 13:07:38;;;;;;;5.75;3.05;;;;;;;26.52;42.19;98544.69;4926874;29;20565;-71
2021/07/29 13:10:07;;;;;;;3.22;2.72;;;;;;;25.27;41.81;98556.94;4923005;29;20031;-68
2021/07/29 13:12:34;;;;;;;;;;;;;;;25.38;43.04;98548.97;4923610;29;20036;-73
2021/07/29 13:15:00;;;;;;;5.22;2.75;;;;;;;25.85;43.67;98541.50;4926006;29;20300;-71
2021/07/29 13:17:25;;;;;;;5.93;3.88;;;;;;;26.52;41.40;98539.38;4925368;29;20393;-71
2021/07/29 13:19:51;;;;;;;4.05;2.88;;;;;;;26.30;39.38;98541.22;4924489;29;20032;-70
2021/07/29 13:22:16;;;;;;;3.35;2.80;;;;;;;26.32;39.51;98539.25;4923097;29;20730;-73
2021/07/29 13:24:42;;;;;;;5.70;2.90;;;;;;;26.64;39.14;98532.97;4925939;29;20035;-71
2021/07/29 13:27:08;;;;;;;4.68;3.35;;;;;;;26.59;38.22;98527.22;4925450;29;20094;-71
2021/07/29 13:29:33;;;;;;;25.92;18.35;;;;;;;26.64;39.93;98530.31;4925644;29;20123;-71
2021/07/29 13:32:03;;;;;;;6.40;3.03;;;;;;;26.51;39.93;98521.75;4923851;29;20396;-70
2021/07/29 13:34:29;;;;;;;4.15;2.92;;;;;;;25.62;39.75;98527.47;4927071;29;20027;-70
2021/07/29 13:36:56;;;;;;;3.75;2.85;;;;;;;25.56;40.25;98521.84;4926751;29;20039;-70
2021/07/29 13:39:21;;;;;;;4.35;3.00;;;;;;;25.47;41.01;98514.66;4925176;29;20075;-70
2021/07/29 13:41:46;;;;;;;4.45;3.00;;;;;;;26.04;41.75;98513.41;4924656;29;20032;-70
2021/07/29 13:44:14;;;;;;;4.00;3.00;;;;;;;26.65;39.80;98511.59;4922999;29;20671;-70
2021/07/29 13:46:39;;;;;;;7.95;2.78;;;;;;;26.32;41.20;98514.53;4925594;29;20040;-68
2021/07/29 13:49:04;;;;;;;4.90;3.13;;;;;;;25.97;41.82;98518.41;4924152;29;20024;-68
2021/07/29 13:51:31;;;;;;;4.65;3.00;;;;;;;25.69;41.61;98511.91;4924094;29;20032;-68
2021/07/29 13:53:57;;;;;;;5.00;3.00;;;;;;;26.17;40.56;98513.19;4925989;29;20058;-70
2021/07/29 13:56:22;;;;;;;4.20;2.97;;;;;;;26.19;41.63;98513.88;4927632;29;20470;-70
2021/07/29 13:58:47;;;;;;;8.55;2.80;;;;;;;26.10;40.12;98512.88;4926321;29;20543;-70
2021/07/29 14:01:13;;;;;;;4.03;2.65;;;;;;;25.26;42.42;98504.88;4921388;29;20792;-72
2021/07/29 14:03:38;;;;;;;7.25;2.83;;;;;;;25.77;41.60;98501.53;4924315;29;20035;-70
2021/07/29 14:06:03;;;;;;;4.13;2.90;;;;;;;26.38;40.40;98501.53;4927237;29;20035;-70
2021/07/29 14:08:29;;;;;;;5.05;3.05;;;;;;;25.38;40.93;98493.25;4927132;29;20063;-71
2021/07/29 14:10:55;;;;;;;4.72;3.17;;;;;;;24.77;41.99;98506.19;4921288;29;20090;-70
2021/07/29 14:13:20;;;;;;;6.90;2.58;;;;;;;24.14;43.86;98494.41;4924234;29;20031;-70
2021/07/29 14:15:46;;;;;;;4.22;3.05;;;;;;;24.60;43.64;98488.16;4924023;29;20449;-70
2021/07/29 14:18:13;;;;;;;3.17;2.80;;;;;;;24.48;44.31;98494.44;4921822;29;20027;-69
2021/07/29 14:20:44;;;;;;;4.97;3.10;;;;;;;25.11;43.14;98493.72;4924233;29;20039;-69
2021/07/29 14:23:28;;;;;;;4.07;2.78;;;;;;;25.54;41.65;98490.16;4923396;29;20035;-72
2021/07/29 14:25:53;;;;;;;3.58;2.80;;;;;;;26.05;42.80;98494.66;4921049;29;21463;-72
2021/07/29 14:28:19;;;;;;;4.50;2.70;;;;;;;26.40;40.22;98486.31;4921864;29;20039;-73
2021/07/29 14:30:45;;;;;;;3.97;2.75;;;;;;;25.11;42.15;98487.59;4923556;29;20746;-72
2021/07/29 14:33:12;;;;;;;3.97;3.25;;;;;;;24.73;44.37;98480.06;4922648;29;20035;-72
2021/07/29 14:35:42;;;;;;;6.30;2.90;;;;;;;25.22;42.20;98484.88;4924743;29;20028;-75
2021/07/29 14:38:08;;;;;;;4.57;3.28;;;;;;;24.83;43.86;98483.66;4924505;29;20500;-74
2021/07/29 14:40:35;;;;;;;5.15;2.58;;;;;;;25.81;41.73;98481.69;4923242;29;20031;-70
2021/07/29 14:43:01;;;;;;;9.93;3.05;;;;;;;25.29;40.82;98486.06;4921906;29;20032;-69
2021/07/29 14:50:43;;;;;;;2.63;2.42;;;;;;;25.34;43.00;98486.53;4924153;29;20111;-74
2021/07/29 14:53:09;;;;;;;4.13;3.03;;;;;;;26.09;41.42;98485.47;4918923;29;20028;-75
2021/07/29 14:55:45;;;;;;;13.70;7.00;;;;;;;26.72;40.31;98477.31;4921846;29;20031;-75
2021/07/29 16:09:16;;;;;;;7.97;2.50;;;;;;;26.50;40.22;98454.47;4916472;29;20031;-76
2021/07/29 16:11:43;;;;;;;7.53;3.08;;;;;;;25.80;40.93;98450.81;4925336;29;20063;-76
2021/07/29 16:14:13;;;;;;;3.13;2.17;;;;;;;26.09;40.18;98452.75;4922173;29;20032;-75
2021/07/29 16:16:39;;;;;;;3.97;2.15;;;;;;;25.98;40.37;98447.56;4927452;29;20028;-75
2021/07/29 16:19:05;;;;;;;3.58;2.83;;;;;;;25.73;41.26;98441.66;4927090;29;20035;-75
2021/07/29 16:21:31;;;;;;;3.42;2.53;;;;;;;25.30;42.45;98437.34;4927889;29;20058;-77
2021/07/29 16:23:56;;;;;;;2.97;2.45;;;;;;;25.03;41.93;98442.25;4919026;29;20390;-74
2021/07/29 16:26:21;;;;;;;4.07;2.78;;;;;;;25.28;41.58;98436.63;4911862;29;20051;-79
2021/07/29 16:28:46;;;;;;;5.95;2.95;;;;;;;25.60;41.76;98435.72;4912590;29;20039;-77
2021/07/29 16:31:12;;;;;;;6.60;2.90;;;;;;;24.91;41.96;98432.69;4906281;29;20043;-74
2021/07/29 16:33:37;;;;;;;4.20;2.60;;;;;;;24.71;42.93;98432.50;4906341;29;20421;-77
2021/07/29 16:36:03;;;;;;;3.85;2.70;;;;;;;24.70;43.33;98430.78;4903824;29;20062;-74
2021/07/29 16:38:28;;;;;;;4.55;2.50;;;;;;;24.66;42.75;98429.38;4905511;29;20046;-78
2021/07/29 16:40:57;;;;;;;4.00;3.15;;;;;;;25.21;42.47;98438.13;4905371;29;20038;-74
2021/07/29 16:43:22;;;;;;;5.37;2.47;;;;;;;25.32;41.86;98439.84;4902873;29;20032;-78
2021/07/29 16:45:48;;;;;;;6.55;2.92;;;;;;;24.90;42.16;98433.63;4889496;29;20099;-78
2021/07/29 16:48:13;;;;;;;4.82;2.60;;;;;;;24.73;42.43;98435.84;4889151;29;20043;-75
2021/07/29 16:50:38;;;;;;;3.20;2.40;;;;;;;24.75;43.16;98431.25;4891222;29;20035;-76
2021/07/29 16:53:04;;;;;;;4.68;2.72;;;;;;;24.57;43.86;98424.84;4894033;29;20036;-76
2021/07/29 16:55:30;;;;;;;3.13;2.33;;;;;;;24.53;43.25;98428.69;4906118;29;20067;-76
2021/07/29 16:57:55;;;;;;;3.90;2.85;;;;;;;24.44;44.21;98426.78;4905343;29;20078;-76
2021/07/29 17:00:21;;;;;;;4.28;2.85;;;;;;;24.41;44.45;98432.31;4916911;29;20484;-73
2021/07/29 17:02:46;;;;;;;6.88;2.80;;;;;;;24.67;43.90;98433.72;4913836;29;20031;-73
2021/07/29 17:05:12;;;;;;;2.83;2.53;;;;;;;24.56;43.60;98433.72;4915345;29;20726;-73
2021/07/29 17:07:39;;;;;;;3.50;2.33;;;;;;;24.61;43.22;98426.25;4914470;29;20039;-75
2021/07/29 17:10:05;;;;;;;4.95;2.70;;;;;;;24.53;42.96;98428.69;4912708;29;20098;-75
2021/07/29 17:12:32;;;;;;;5.18;2.50;;;;;;;25.35;42.46;98427.19;4914972;29;20106;-75